sensor_id;sensor_type;location;lat;lon;timestamp;temperature;humidity
72202;SHT30;60105;54.956;73.412;2023-02-01T00:01:43;-15.59;65.68
72202;SHT30;60105;54.956;73.412;2023-02-01T00:04:44;-15.53;65.27
72202;SHT30;60105;54.956;73.412;2023-02-01T00:07:47;-15.52;65.29
72202;SHT30;60105;54.956;73.412;2023-02-01T00:11:02;-15.53;65.34
72202;SHT30;60105;54.956;73.412;2023-02-01T00:14:03;-15.62;65.28
72202;SHT30;60105;54.956;73.412;2023-02-01T00:17:05;-15.66;65.56
72202;SHT30;60105;54.956;73.412;2023-02-01T00:20:17;-15.59;65.84
72202;SHT30;60105;54.956;73.412;2023-02-01T00:23:33;-15.41;65.56
72202;SHT30;60105;54.956;73.412;2023-02-01T00:26:37;-15.41;64.38
72202;SHT30;60105;54.956;73.412;2023-02-01T00:29:40;-15.39;65.25
72202;SHT30;60105;54.956;73.412;2023-02-01T00:32:41;-15.21;64.91
72202;SHT30;60105;54.956;73.412;2023-02-01T00:35:42;-15.27;64.49
72202;SHT30;60105;54.956;73.412;2023-02-01T00:38:43;-15.31;64.66
72202;SHT30;60105;54.956;73.412;2023-02-01T00:41:45;-15.28;64.96
72202;SHT30;60105;54.956;73.412;2023-02-01T00:44:56;-15.35;64.99
72202;SHT30;60105;54.956;73.412;2023-02-01T00:48:01;-15.52;65.20
72202;SHT30;60105;54.956;73.412;2023-02-01T00:51:05;-15.58;65.62
72202;SHT30;60105;54.956;73.412;2023-02-01T00:54:07;-15.42;65.80
72202;SHT30;60105;54.956;73.412;2023-02-01T00:57:08;-15.35;64.66
72202;SHT30;60105;54.956;73.412;2023-02-01T01:00:10;-15.25;64.84
72202;SHT30;60105;54.956;73.412;2023-02-01T01:03:33;-15.39;63.64
72202;SHT30;60105;54.956;73.412;2023-02-01T01:06:35;-15.48;64.38
72202;SHT30;60105;54.956;73.412;2023-02-01T01:09:47;-15.46;64.37
72202;SHT30;60105;54.956;73.412;2023-02-01T01:13:32;-15.48;64.95
72202;SHT30;60105;54.956;73.412;2023-02-01T01:16:41;-15.48;64.96
72202;SHT30;60105;54.956;73.412;2023-02-01T01:19:42;-15.46;65.53
72202;SHT30;60105;54.956;73.412;2023-02-01T01:23:32;-15.55;65.92
72202;SHT30;60105;54.956;73.412;2023-02-01T01:26:39;-15.52;65.76
72202;SHT30;60105;54.956;73.412;2023-02-01T01:29:40;-15.51;66.03
72202;SHT30;60105;54.956;73.412;2023-02-01T01:32:41;-15.62;66.25
72202;SHT30;60105;54.956;73.412;2023-02-01T01:35:42;-15.56;66.57
72202;SHT30;60105;54.956;73.412;2023-02-01T01:38:54;-15.58;66.55
72202;SHT30;60105;54.956;73.412;2023-02-01T01:41:55;-15.59;66.95
72202;SHT30;60105;54.956;73.412;2023-02-01T01:45:22;-15.51;67.05
72202;SHT30;60105;54.956;73.412;2023-02-01T01:48:28;-15.41;67.58
72202;SHT30;60105;54.956;73.412;2023-02-01T01:51:52;-15.27;67.04
72202;SHT30;60105;54.956;73.412;2023-02-01T01:54:55;-15.14;67.17
72202;SHT30;60105;54.956;73.412;2023-02-01T01:58:33;-15.00;66.20
72202;SHT30;60105;54.956;73.412;2023-02-01T02:01:35;-15.01;66.47
72202;SHT30;60105;54.956;73.412;2023-02-01T02:04:36;-15.01;66.29
72202;SHT30;60105;54.956;73.412;2023-02-01T02:07:41;-14.73;65.77
72202;SHT30;60105;54.956;73.412;2023-02-01T02:10:43;-14.48;64.55
72202;SHT30;60105;54.956;73.412;2023-02-01T02:14:05;-14.61;63.99
72202;SHT30;60105;54.956;73.412;2023-02-01T02:20:31;-14.52;64.36
72202;SHT30;60105;54.956;73.412;2023-02-01T02:27:22;-14.37;64.19
72202;SHT30;60105;54.956;73.412;2023-02-01T02:34:03;-14.32;63.22
72202;SHT30;60105;54.956;73.412;2023-02-01T02:40:39;-14.45;62.96
72202;SHT30;60105;54.956;73.412;2023-02-01T02:43:51;-14.41;62.68
72202;SHT30;60105;54.956;73.412;2023-02-01T02:47:27;-14.59;63.14
72202;SHT30;60105;54.956;73.412;2023-02-01T02:50:36;-14.65;63.54
72202;SHT30;60105;54.956;73.412;2023-02-01T02:54:17;-14.53;63.12
72202;SHT30;60105;54.956;73.412;2023-02-01T02:57:40;-14.49;62.60
72202;SHT30;60105;54.956;73.412;2023-02-01T03:01:03;-14.69;62.11
72202;SHT30;60105;54.956;73.412;2023-02-01T03:04:23;-14.70;62.50
72202;SHT30;60105;54.956;73.412;2023-02-01T03:07:53;-14.77;62.93
72202;SHT30;60105;54.956;73.412;2023-02-01T03:11:05;-14.79;62.93
72202;SHT30;60105;54.956;73.412;2023-02-01T03:14:08;-14.68;62.69
72202;SHT30;60105;54.956;73.412;2023-02-01T03:17:15;-14.65;62.39
72202;SHT30;60105;54.956;73.412;2023-02-01T03:20:23;-14.80;62.71
72202;SHT30;60105;54.956;73.412;2023-02-01T03:23:33;-14.93;63.09
72202;SHT30;60105;54.956;73.412;2023-02-01T03:26:38;-14.83;63.86
72202;SHT30;60105;54.956;73.412;2023-02-01T03:33:32;-14.75;63.84
72202;SHT30;60105;54.956;73.412;2023-02-01T03:36:40;-14.68;64.22
72202;SHT30;60105;54.956;73.412;2023-02-01T03:39:53;-14.42;63.85
72202;SHT30;60105;54.956;73.412;2023-02-01T03:43:42;-14.16;63.74
72202;SHT30;60105;54.956;73.412;2023-02-01T03:47:06;-14.00;63.96
72202;SHT30;60105;54.956;73.412;2023-02-01T03:53:32;-13.52;63.08
72202;SHT30;60105;54.956;73.412;2023-02-01T03:56:38;-13.63;62.88
72202;SHT30;60105;54.956;73.412;2023-02-01T03:59:41;-13.60;62.75
72202;SHT30;60105;54.956;73.412;2023-02-01T04:03:32;-13.51;63.07
72202;SHT30;60105;54.956;73.412;2023-02-01T04:06:33;-13.42;63.27
72202;SHT30;60105;54.956;73.412;2023-02-01T04:09:38;-13.24;62.61
72202;SHT30;60105;54.956;73.412;2023-02-01T04:12:40;-13.11;61.87
72202;SHT30;60105;54.956;73.412;2023-02-01T04:15:51;-13.07;62.39
72202;SHT30;60105;54.956;73.412;2023-02-01T04:18:52;-12.99;61.21
72202;SHT30;60105;54.956;73.412;2023-02-01T04:21:54;-13.07;61.88
72202;SHT30;60105;54.956;73.412;2023-02-01T04:25:00;-12.97;61.30
72202;SHT30;60105;54.956;73.412;2023-02-01T04:28:32;-12.99;60.87
72202;SHT30;60105;54.956;73.412;2023-02-01T04:31:34;-12.94;60.90
72202;SHT30;60105;54.956;73.412;2023-02-01T04:34:36;-13.03;61.20
72202;SHT30;60105;54.956;73.412;2023-02-01T04:37:38;-13.01;61.80
72202;SHT30;60105;54.956;73.412;2023-02-01T04:40:49;-12.81;61.22
72202;SHT30;60105;54.956;73.412;2023-02-01T04:44:00;-12.75;60.70
72202;SHT30;60105;54.956;73.412;2023-02-01T04:47:07;-12.63;60.82
72202;SHT30;60105;54.956;73.412;2023-02-01T04:50:09;-12.59;60.27
72202;SHT30;60105;54.956;73.412;2023-02-01T04:53:32;-12.42;59.79
72202;SHT30;60105;54.956;73.412;2023-02-01T04:56:34;-12.31;59.38
72202;SHT30;60105;54.956;73.412;2023-02-01T04:59:38;-12.28;59.53
72202;SHT30;60105;54.956;73.412;2023-02-01T05:02:39;-12.29;59.52
72202;SHT30;60105;54.956;73.412;2023-02-01T05:05:40;-12.35;59.44
72202;SHT30;60105;54.956;73.412;2023-02-01T05:08:42;-12.39;59.45
72202;SHT30;60105;54.956;73.412;2023-02-01T05:11:43;-12.53;59.64
72202;SHT30;60105;54.956;73.412;2023-02-01T05:15:03;-12.58;60.25
72202;SHT30;60105;54.956;73.412;2023-02-01T05:18:05;-12.50;60.02
72202;SHT30;60105;54.956;73.412;2023-02-01T05:21:12;-12.48;60.18
72202;SHT30;60105;54.956;73.412;2023-02-01T05:24:24;-12.22;59.98
72202;SHT30;60105;54.956;73.412;2023-02-01T05:27:30;-12.10;59.43
72202;SHT30;60105;54.956;73.412;2023-02-01T05:30:37;-12.06;59.72
72202;SHT30;60105;54.956;73.412;2023-02-01T05:33:38;-12.10;60.39
72202;SHT30;60105;54.956;73.412;2023-02-01T05:36:39;-12.02;60.48
72202;SHT30;60105;54.956;73.412;2023-02-01T05:39:46;-11.89;59.97
72202;SHT30;60105;54.956;73.412;2023-02-01T05:42:47;-11.80;60.01
72202;SHT30;60105;54.956;73.412;2023-02-01T05:45:58;-11.73;59.85
72202;SHT30;60105;54.956;73.412;2023-02-01T05:49:10;-11.71;60.60
72202;SHT30;60105;54.956;73.412;2023-02-01T05:52:11;-11.69;60.43
72202;SHT30;60105;54.956;73.412;2023-02-01T05:55:12;-11.66;61.00
72202;SHT30;60105;54.956;73.412;2023-02-01T05:58:32;-11.52;61.07
72202;SHT30;60105;54.956;73.412;2023-02-01T06:01:33;-11.53;61.38
72202;SHT30;60105;54.956;73.412;2023-02-01T06:04:34;-11.21;61.09
72202;SHT30;60105;54.956;73.412;2023-02-01T06:07:36;-11.28;61.39
72202;SHT30;60105;54.956;73.412;2023-02-01T06:10:37;-11.18;61.81
72202;SHT30;60105;54.956;73.412;2023-02-01T06:13:47;-10.84;61.00
72202;SHT30;60105;54.956;73.412;2023-02-01T06:16:48;-10.79;60.74
72202;SHT30;60105;54.956;73.412;2023-02-01T06:19:55;-10.69;61.08
72202;SHT30;60105;54.956;73.412;2023-02-01T06:23:34;-10.66;60.71
72202;SHT30;60105;54.956;73.412;2023-02-01T06:26:45;-10.73;61.09
72202;SHT30;60105;54.956;73.412;2023-02-01T06:29:51;-10.69;60.64
72202;SHT30;60105;54.956;73.412;2023-02-01T06:33:33;-10.66;60.42
72202;SHT30;60105;54.956;73.412;2023-02-01T06:36:39;-10.43;59.72
72202;SHT30;60105;54.956;73.412;2023-02-01T06:39:41;-10.32;58.80
72202;SHT30;60105;54.956;73.412;2023-02-01T06:43:32;-10.24;58.77
72202;SHT30;60105;54.956;73.412;2023-02-01T06:46:39;-10.19;58.50
72202;SHT30;60105;54.956;73.412;2023-02-01T06:49:40;-10.05;58.72
72202;SHT30;60105;54.956;73.412;2023-02-01T06:52:41;-9.97;59.14
72202;SHT30;60105;54.956;73.412;2023-02-01T06:55:55;-10.00;59.13
72202;SHT30;60105;54.956;73.412;2023-02-01T06:59:07;-9.67;58.79
72202;SHT30;60105;54.956;73.412;2023-02-01T07:02:12;-9.40;57.89
72202;SHT30;60105;54.956;73.412;2023-02-01T07:05:13;-9.33;57.12
72202;SHT30;60105;54.956;73.412;2023-02-01T07:08:33;-9.29;57.36
72202;SHT30;60105;54.956;73.412;2023-02-01T07:11:44;-9.36;57.91
72202;SHT30;60105;54.956;73.412;2023-02-01T07:14:46;-9.19;57.34
72202;SHT30;60105;54.956;73.412;2023-02-01T07:17:47;-9.26;57.77
72202;SHT30;60105;54.956;73.412;2023-02-01T07:20:50;-9.08;58.27
72202;SHT30;60105;54.956;73.412;2023-02-01T07:23:52;-9.02;58.71
72202;SHT30;60105;54.956;73.412;2023-02-01T07:26:53;-8.95;58.31
72202;SHT30;60105;54.956;73.412;2023-02-01T07:29:55;-8.88;58.18
72202;SHT30;60105;54.956;73.412;2023-02-01T07:33:32;-8.92;58.35
72202;SHT30;60105;54.956;73.412;2023-02-01T07:36:34;-8.80;58.38
72202;SHT30;60105;54.956;73.412;2023-02-01T07:39:37;-8.61;57.55
72202;SHT30;60105;54.956;73.412;2023-02-01T07:42:38;-8.54;57.36
72202;SHT30;60105;54.956;73.412;2023-02-01T07:45:53;-8.53;57.32
72202;SHT30;60105;54.956;73.412;2023-02-01T07:49:05;-8.26;57.34
72202;SHT30;60105;54.956;73.412;2023-02-01T07:52:16;-8.01;57.26
72202;SHT30;60105;54.956;73.412;2023-02-01T07:55:28;-7.98;57.15
72202;SHT30;60105;54.956;73.412;2023-02-01T07:58:32;-7.87;57.26
72202;SHT30;60105;54.956;73.412;2023-02-01T08:01:33;-7.82;56.91
72202;SHT30;60105;54.956;73.412;2023-02-01T08:04:35;-7.88;56.80
72202;SHT30;60105;54.956;73.412;2023-02-01T08:07:36;-7.99;56.96
72202;SHT30;60105;54.956;73.412;2023-02-01T08:10:42;-7.94;56.81
72202;SHT30;60105;54.956;73.412;2023-02-01T08:13:48;-7.88;55.78
72202;SHT30;60105;54.956;73.412;2023-02-01T08:16:50;-7.91;56.29
72202;SHT30;60105;54.956;73.412;2023-02-01T08:19:51;-8.03;56.53
72202;SHT30;60105;54.956;73.412;2023-02-01T08:23:33;-8.06;55.79
72202;SHT30;60105;54.956;73.412;2023-02-01T08:26:35;-7.91;55.52
72202;SHT30;60105;54.956;73.412;2023-02-01T08:29:36;-7.92;55.20
72202;SHT30;60105;54.956;73.412;2023-02-01T08:32:42;-8.13;55.85
72202;SHT30;60105;54.956;73.412;2023-02-01T08:35:49;-8.12;56.19
72202;SHT30;60105;54.956;73.412;2023-02-01T08:39:00;-8.03;56.97
72202;SHT30;60105;54.956;73.412;2023-02-01T08:42:08;-7.95;56.88
72202;SHT30;60105;54.956;73.412;2023-02-01T08:45:32;-8.05;57.03
72202;SHT30;60105;54.956;73.412;2023-02-01T08:48:40;-8.20;57.12
72202;SHT30;60105;54.956;73.412;2023-02-01T08:51:41;-8.26;57.62
72202;SHT30;60105;54.956;73.412;2023-02-01T08:54:42;-8.13;57.44
72202;SHT30;60105;54.956;73.412;2023-02-01T08:57:44;-8.08;57.20
72202;SHT30;60105;54.956;73.412;2023-02-01T09:00:45;-8.02;56.83
72202;SHT30;60105;54.956;73.412;2023-02-01T09:03:46;-8.13;57.38
72202;SHT30;60105;54.956;73.412;2023-02-01T09:06:47;-8.29;57.62
72202;SHT30;60105;54.956;73.412;2023-02-01T09:09:53;-8.33;57.91
72202;SHT30;60105;54.956;73.412;2023-02-01T09:13:32;-8.39;57.25
72202;SHT30;60105;54.956;73.412;2023-02-01T09:16:39;-8.67;57.51
72202;SHT30;60105;54.956;73.412;2023-02-01T09:19:40;-8.91;58.15
72202;SHT30;60105;54.956;73.412;2023-02-01T09:22:46;-8.92;58.44
72202;SHT30;60105;54.956;73.412;2023-02-01T09:25:48;-8.90;58.72
72202;SHT30;60105;54.956;73.412;2023-02-01T09:28:53;-8.80;58.69
72202;SHT30;60105;54.956;73.412;2023-02-01T09:31:58;-8.91;58.58
72202;SHT30;60105;54.956;73.412;2023-02-01T09:34:59;-8.95;58.54
72202;SHT30;60105;54.956;73.412;2023-02-01T09:38:32;-9.01;59.08
72202;SHT30;60105;54.956;73.412;2023-02-01T09:42:16;-9.04;59.24
72202;SHT30;60105;54.956;73.412;2023-02-01T09:48:39;-9.12;59.03
72202;SHT30;60105;54.956;73.412;2023-02-01T09:51:55;-9.14;59.33
72202;SHT30;60105;54.956;73.412;2023-02-01T09:55:01;-9.11;59.26
72202;SHT30;60105;54.956;73.412;2023-02-01T09:58:36;-9.12;60.25
72202;SHT30;60105;54.956;73.412;2023-02-01T10:01:38;-9.14;60.51
72202;SHT30;60105;54.956;73.412;2023-02-01T10:04:40;-9.15;60.30
72202;SHT30;60105;54.956;73.412;2023-02-01T10:08:00;-9.32;60.39
72202;SHT30;60105;54.956;73.412;2023-02-01T10:11:32;-9.42;60.75
72202;SHT30;60105;54.956;73.412;2023-02-01T10:21:23;-9.47;61.22
72202;SHT30;60105;54.956;73.412;2023-02-01T10:28:32;-9.67;61.76
72202;SHT30;60105;54.956;73.412;2023-02-01T10:31:36;-9.66;61.42
72202;SHT30;60105;54.956;73.412;2023-02-01T10:34:38;-9.69;61.30
72202;SHT30;60105;54.956;73.412;2023-02-01T10:37:41;-9.93;61.20
72202;SHT30;60105;54.956;73.412;2023-02-01T10:40:43;-9.93;61.91
72202;SHT30;60105;54.956;73.412;2023-02-01T10:43:47;-9.93;61.76
72202;SHT30;60105;54.956;73.412;2023-02-01T10:46:50;-10.08;61.98
72202;SHT30;60105;54.956;73.412;2023-02-01T10:50:04;-10.14;62.55
72202;SHT30;60105;54.956;73.412;2023-02-01T10:56:44;-10.18;62.69
72202;SHT30;60105;54.956;73.412;2023-02-01T10:59:48;-10.14;62.56
72202;SHT30;60105;54.956;73.412;2023-02-01T11:04:00;-10.19;62.56
72202;SHT30;60105;54.956;73.412;2023-02-01T11:07:22;-10.35;62.80
72202;SHT30;60105;54.956;73.412;2023-02-01T11:13:39;-10.61;63.68
72202;SHT30;60105;54.956;73.412;2023-02-01T11:16:40;-10.57;63.77
72202;SHT30;60105;54.956;73.412;2023-02-01T11:20:04;-10.61;63.86
72202;SHT30;60105;54.956;73.412;2023-02-01T11:23:32;-10.67;63.98
72202;SHT30;60105;54.956;73.412;2023-02-01T11:26:39;-10.80;64.30
72202;SHT30;60105;54.956;73.412;2023-02-01T11:29:50;-10.81;64.44
72202;SHT30;60105;54.956;73.412;2023-02-01T11:33:35;-10.81;64.57
72202;SHT30;60105;54.956;73.412;2023-02-01T11:36:36;-10.90;64.93
72202;SHT30;60105;54.956;73.412;2023-02-01T11:43:32;-10.97;65.04
72202;SHT30;60105;54.956;73.412;2023-02-01T11:46:34;-11.03;65.62
72202;SHT30;60105;54.956;73.412;2023-02-01T11:49:36;-11.11;65.86
72202;SHT30;60105;54.956;73.412;2023-02-01T12:07:01;-11.18;67.31
72202;SHT30;60105;54.956;73.412;2023-02-01T12:14:08;-11.36;68.13
72202;SHT30;60105;54.956;73.412;2023-02-01T12:20:41;-11.18;67.16
72202;SHT30;60105;54.956;73.412;2023-02-01T12:44:39;-11.56;68.35
72202;SHT30;60105;54.956;73.412;2023-02-01T12:47:46;-11.46;68.15
72202;SHT30;60105;54.956;73.412;2023-02-01T12:50:57;-11.56;67.84
72202;SHT30;60105;54.956;73.412;2023-02-01T12:54:20;-11.50;67.83
72202;SHT30;60105;54.956;73.412;2023-02-01T12:57:28;-11.46;67.31
72202;SHT30;60105;54.956;73.412;2023-02-01T13:00:36;-11.42;67.25
72202;SHT30;60105;54.956;73.412;2023-02-01T13:04:12;-11.49;67.08
72202;SHT30;60105;54.956;73.412;2023-02-01T13:07:18;-11.53;67.18
72202;SHT30;60105;54.956;73.412;2023-02-01T13:17:11;-11.59;67.47
72202;SHT30;60105;54.956;73.412;2023-02-01T13:23:35;-11.53;66.66
72202;SHT30;60105;54.956;73.412;2023-02-01T13:26:42;-11.59;66.74
72202;SHT30;60105;54.956;73.412;2023-02-01T13:30:20;-11.55;66.65
72202;SHT30;60105;54.956;73.412;2023-02-01T13:33:39;-11.49;66.38
72202;SHT30;60105;54.956;73.412;2023-02-01T13:37:14;-11.40;66.05
72202;SHT30;60105;54.956;73.412;2023-02-01T13:40:36;-11.49;65.85
72202;SHT30;60105;54.956;73.412;2023-02-01T13:43:40;-11.48;66.13
72202;SHT30;60105;54.956;73.412;2023-02-01T13:46:45;-11.56;66.07
72202;SHT30;60105;54.956;73.412;2023-02-01T13:49:47;-11.67;66.36
72202;SHT30;60105;54.956;73.412;2023-02-01T13:53:34;-11.53;66.07
72202;SHT30;60105;54.956;73.412;2023-02-01T13:56:42;-11.40;65.20
72202;SHT30;60105;54.956;73.412;2023-02-01T14:03:45;-11.31;64.39
72202;SHT30;60105;54.956;73.412;2023-02-01T14:06:58;-11.36;63.63
72202;SHT30;60105;54.956;73.412;2023-02-01T14:13:42;-11.31;63.84
72202;SHT30;60105;54.956;73.412;2023-02-01T14:23:54;-11.48;64.33
72202;SHT30;60105;54.956;73.412;2023-02-01T14:30:16;-11.29;64.23
72202;SHT30;60105;54.956;73.412;2023-02-01T14:33:31;-11.42;64.45
72202;SHT30;60105;54.956;73.412;2023-02-01T14:36:49;-11.40;64.80
72202;SHT30;60105;54.956;73.412;2023-02-01T14:53:33;-11.55;64.59
72202;SHT30;60105;54.956;73.412;2023-02-01T14:56:45;-11.48;64.66
72202;SHT30;60105;54.956;73.412;2023-02-01T14:59:49;-11.52;64.21
72202;SHT30;60105;54.956;73.412;2023-02-01T15:03:51;-11.45;64.41
72202;SHT30;60105;54.956;73.412;2023-02-01T15:07:12;-11.42;64.35
72202;SHT30;60105;54.956;73.412;2023-02-01T15:10:20;-11.48;64.46
72202;SHT30;60105;54.956;73.412;2023-02-01T15:13:32;-11.62;64.85
72202;SHT30;60105;54.956;73.412;2023-02-01T15:16:42;-11.65;65.25
72202;SHT30;60105;54.956;73.412;2023-02-01T15:19:56;-11.60;65.32
72202;SHT30;60105;54.956;73.412;2023-02-01T15:23:32;-11.55;64.98
72202;SHT30;60105;54.956;73.412;2023-02-01T15:26:34;-11.46;64.68
72202;SHT30;60105;54.956;73.412;2023-02-01T15:29:45;-11.49;64.34
72202;SHT30;60105;54.956;73.412;2023-02-01T15:33:32;-11.53;64.02
72202;SHT30;60105;54.956;73.412;2023-02-01T15:36:33;-11.71;64.58
72202;SHT30;60105;54.956;73.412;2023-02-01T15:39:36;-11.91;65.12
72202;SHT30;60105;54.956;73.412;2023-02-01T15:42:51;-11.97;65.76
72202;SHT30;60105;54.956;73.412;2023-02-01T15:46:07;-11.87;65.56
72202;SHT30;60105;54.956;73.412;2023-02-01T15:49:39;-11.70;65.46
72202;SHT30;60105;54.956;73.412;2023-02-01T15:52:41;-11.67;65.41
72202;SHT30;60105;54.956;73.412;2023-02-01T15:55:43;-11.53;65.07
72202;SHT30;60105;54.956;73.412;2023-02-01T15:58:50;-11.29;64.39
72202;SHT30;60105;54.956;73.412;2023-02-01T16:01:52;-11.55;64.01
72202;SHT30;60105;54.956;73.412;2023-02-01T16:04:53;-11.69;64.66
72202;SHT30;60105;54.956;73.412;2023-02-01T16:08:32;-11.52;64.34
72202;SHT30;60105;54.956;73.412;2023-02-01T16:11:56;-11.43;63.75
72202;SHT30;60105;54.956;73.412;2023-02-01T16:15:01;-11.46;63.71
72202;SHT30;60105;54.956;73.412;2023-02-01T16:18:10;-11.43;64.19
72202;SHT30;60105;54.956;73.412;2023-02-01T16:21:12;-11.40;64.12
72202;SHT30;60105;54.956;73.412;2023-02-01T16:24:13;-11.35;64.28
72202;SHT30;60105;54.956;73.412;2023-02-01T16:27:15;-11.42;64.17
72202;SHT30;60105;54.956;73.412;2023-02-01T16:30:21;-11.31;64.15
72202;SHT30;60105;54.956;73.412;2023-02-01T16:33:36;-11.21;63.64
72202;SHT30;60105;54.956;73.412;2023-02-01T16:36:37;-11.36;63.54
72202;SHT30;60105;54.956;73.412;2023-02-01T16:39:49;-11.53;65.00
72202;SHT30;60105;54.956;73.412;2023-02-01T16:43:32;-11.39;65.38
72202;SHT30;60105;54.956;73.412;2023-02-01T16:46:35;-11.49;64.73
72202;SHT30;60105;54.956;73.412;2023-02-01T16:49:50;-11.56;65.49
72202;SHT30;60105;54.956;73.412;2023-02-01T16:53:32;-11.52;66.15
72202;SHT30;60105;54.956;73.412;2023-02-01T16:56:33;-11.50;65.94
72202;SHT30;60105;54.956;73.412;2023-02-01T16:59:46;-11.40;66.14
72202;SHT30;60105;54.956;73.412;2023-02-01T17:03:32;-11.39;66.66
72202;SHT30;60105;54.956;73.412;2023-02-01T17:06:35;-11.52;66.65
72202;SHT30;60105;54.956;73.412;2023-02-01T17:09:42;-11.49;66.94
72202;SHT30;60105;54.956;73.412;2023-02-01T17:12:44;-11.24;66.24
72202;SHT30;60105;54.956;73.412;2023-02-01T17:19:22;-11.21;65.39
72202;SHT30;60105;54.956;73.412;2023-02-01T17:22:23;-11.21;65.63
72202;SHT30;60105;54.956;73.412;2023-02-01T17:25:30;-11.22;65.01
72202;SHT30;60105;54.956;73.412;2023-02-01T17:28:37;-11.27;65.41
72202;SHT30;60105;54.956;73.412;2023-02-01T17:31:41;-11.46;65.22
72202;SHT30;60105;54.956;73.412;2023-02-01T17:34:43;-11.34;65.30
72202;SHT30;60105;54.956;73.412;2023-02-01T17:37:45;-11.45;65.24
72202;SHT30;60105;54.956;73.412;2023-02-01T17:40:46;-11.55;65.01
72202;SHT30;60105;54.956;73.412;2023-02-01T17:43:49;-11.70;65.32
72202;SHT30;60105;54.956;73.412;2023-02-01T17:46:51;-11.49;65.38
72202;SHT30;60105;54.956;73.412;2023-02-01T17:49:52;-11.69;65.34
72202;SHT30;60105;54.956;73.412;2023-02-01T17:53:32;-11.79;65.38
72202;SHT30;60105;54.956;73.412;2023-02-01T17:56:45;-11.56;65.14
72202;SHT30;60105;54.956;73.412;2023-02-01T17:59:48;-11.60;64.84
72202;SHT30;60105;54.956;73.412;2023-02-01T18:03:31;-11.49;64.24
72202;SHT30;60105;54.956;73.412;2023-02-01T18:06:45;-11.53;64.10
72202;SHT30;60105;54.956;73.412;2023-02-01T18:09:56;-11.79;64.28
72202;SHT30;60105;54.956;73.412;2023-02-01T18:13:31;-12.02;65.20
72202;SHT30;60105;54.956;73.412;2023-02-01T18:16:33;-11.89;65.53
72202;SHT30;60105;54.956;73.412;2023-02-01T18:19:35;-11.86;65.11
72202;SHT30;60105;54.956;73.412;2023-02-01T18:22:36;-11.79;65.14
72202;SHT30;60105;54.956;73.412;2023-02-01T18:25:43;-11.71;64.12
72202;SHT30;60105;54.956;73.412;2023-02-01T18:28:51;-11.76;64.50
72202;SHT30;60105;54.956;73.412;2023-02-01T18:31:53;-11.71;64.16
72202;SHT30;60105;54.956;73.412;2023-02-01T18:35:01;-11.86;64.25
72202;SHT30;60105;54.956;73.412;2023-02-01T18:38:31;-11.89;64.19
72202;SHT30;60105;54.956;73.412;2023-02-01T18:41:33;-12.00;64.28
72202;SHT30;60105;54.956;73.412;2023-02-01T18:44:34;-12.21;65.10
72202;SHT30;60105;54.956;73.412;2023-02-01T18:47:36;-12.17;65.84
72202;SHT30;60105;54.956;73.412;2023-02-01T18:50:40;-11.86;65.91
72202;SHT30;60105;54.956;73.412;2023-02-01T18:53:41;-11.91;66.03
72202;SHT30;60105;54.956;73.412;2023-02-01T18:56:53;-11.71;65.69
72202;SHT30;60105;54.956;73.412;2023-02-01T18:59:54;-11.74;65.90
72202;SHT30;60105;54.956;73.412;2023-02-01T19:03:31;-11.67;65.05
72202;SHT30;60105;54.956;73.412;2023-02-01T19:06:32;-11.74;65.40
72202;SHT30;60105;54.956;73.412;2023-02-01T19:09:33;-11.66;64.83
72202;SHT30;60105;54.956;73.412;2023-02-01T19:12:36;-11.52;64.74
72202;SHT30;60105;54.956;73.412;2023-02-01T19:15:39;-11.74;64.44
72202;SHT30;60105;54.956;73.412;2023-02-01T19:18:41;-11.74;64.52
72202;SHT30;60105;54.956;73.412;2023-02-01T19:21:47;-11.77;64.03
72202;SHT30;60105;54.956;73.412;2023-02-01T19:24:50;-11.87;63.92
72202;SHT30;60105;54.956;73.412;2023-02-01T19:28:31;-11.98;63.68
72202;SHT30;60105;54.956;73.412;2023-02-01T19:31:43;-12.27;64.27
72202;SHT30;60105;54.956;73.412;2023-02-01T19:34:47;-12.52;64.78
72202;SHT30;60105;54.956;73.412;2023-02-01T19:38:32;-12.62;65.34
72202;SHT30;60105;54.956;73.412;2023-02-01T19:41:34;-12.90;65.56
72202;SHT30;60105;54.956;73.412;2023-02-01T19:44:35;-12.94;66.61
72202;SHT30;60105;54.956;73.412;2023-02-01T19:47:42;-12.86;65.62
72202;SHT30;60105;54.956;73.412;2023-02-01T19:50:44;-12.83;66.14
72202;SHT30;60105;54.956;73.412;2023-02-01T19:53:45;-12.76;66.25
72202;SHT30;60105;54.956;73.412;2023-02-01T19:56:47;-12.66;66.24
72202;SHT30;60105;54.956;73.412;2023-02-01T19:59:55;-12.65;65.47
72202;SHT30;60105;54.956;73.412;2023-02-01T20:03:31;-12.59;65.62
72202;SHT30;60105;54.956;73.412;2023-02-01T20:06:37;-12.66;65.49
72202;SHT30;60105;54.956;73.412;2023-02-01T20:09:39;-12.75;65.49
72202;SHT30;60105;54.956;73.412;2023-02-01T20:13:31;-12.97;65.87
72202;SHT30;60105;54.956;73.412;2023-02-01T20:16:35;-12.89;66.45
72202;SHT30;60105;54.956;73.412;2023-02-01T20:19:36;-12.70;66.14
72202;SHT30;60105;54.956;73.412;2023-02-01T20:22:38;-12.75;65.14
72202;SHT30;60105;54.956;73.412;2023-02-01T20:25:39;-12.76;65.74
72202;SHT30;60105;54.956;73.412;2023-02-01T20:28:46;-12.79;65.28
72202;SHT30;60105;54.956;73.412;2023-02-01T20:32:01;-12.63;65.26
72202;SHT30;60105;54.956;73.412;2023-02-01T20:35:14;-12.76;64.92
72202;SHT30;60105;54.956;73.412;2023-02-01T20:38:32;-12.68;
72202;SHT30;60105;54.956;73.412;2023-02-01T20:41:34;-12.86;65.44
72202;SHT30;60105;54.956;73.412;2023-02-01T20:44:35;-12.86;65.35
72202;SHT30;60105;54.956;73.412;2023-02-01T20:47:37;-12.87;66.77
72202;SHT30;60105;54.956;73.412;2023-02-01T20:50:55;-12.96;66.41
72202;SHT30;60105;54.956;73.412;2023-02-01T20:53:56;-12.77;66.66
72202;SHT30;60105;54.956;73.412;2023-02-01T20:56:58;-12.80;66.58
72202;SHT30;60105;54.956;73.412;2023-02-01T21:00:10;-12.76;67.20
72202;SHT30;60105;54.956;73.412;2023-02-01T21:03:34;-12.75;66.82
72202;SHT30;60105;54.956;73.412;2023-02-01T21:06:36;-12.62;66.85
72202;SHT30;60105;54.956;73.412;2023-02-01T21:09:42;-12.63;65.90
72202;SHT30;60105;54.956;73.412;2023-02-01T21:12:43;-12.68;65.83
72202;SHT30;60105;54.956;73.412;2023-02-01T21:15:45;-12.72;65.24
72202;SHT30;60105;54.956;73.412;2023-02-01T21:18:50;-12.79;65.17
72202;SHT30;60105;54.956;73.412;2023-02-01T21:21:55;-13.03;65.20
72202;SHT30;60105;54.956;73.412;2023-02-01T21:25:01;-13.04;65.23
72202;SHT30;60105;54.956;73.412;2023-02-01T21:28:31;-13.27;66.02
72202;SHT30;60105;54.956;73.412;2023-02-01T21:31:33;-13.35;66.66
72202;SHT30;60105;54.956;73.412;2023-02-01T21:34:35;-13.28;67.17
72202;SHT30;60105;54.956;73.412;2023-02-01T21:38:34;-13.45;67.28
72202;SHT30;60105;54.956;73.412;2023-02-01T21:41:36;-13.31;67.28
72202;SHT30;60105;54.956;73.412;2023-02-01T21:44:56;-13.27;66.99